Main page
METAR-TAF:

METAR-TAF

Airports :

Schwäbisch Hall, Germany

latitude: 49-07-06N, longitude: 9-47-02E, elevation: 398 m

Current weather observation

The report was made 7 hours and 23 minutes ago, at 18:50 UTC
Wind 8 kt from the Southeast, varying between East and South
Temperature 5°C
Humidity 100%
Pressure 1027 hPa
Visibility 10 km or more
Overcast at a height of 700 ft

METAR: EDTY 151850Z 13008KT 100V170 9999 OVC007 05/05 Q1027

Time: 03:13 (02:13 UTC)

Forecast

The report was made 9 hours and 13 minutes ago, at 17:00 UTC
Forecast valid from 15 at 18 UTC to 16 at 03 UTC
Wind 5 kt from the East
Visibility: 8000 m
Overcast at a height of 400 ft
Becoming
from 15 at 20 UTC to 15 at 22 UTC
Visibility: 3500 m
mist

TAF: EDTY 151700Z 1518/1603 10005KT 8000 OVC004 BECMG 1520/1522 3500 BR

Weather observations and forecasts of more than 4000 airports (METAR and TAF reports).

The available stations are represented by yellow and red dots on the map.

Hover mouse over dot to see the name of the station.

Then click to see weather observations and forecasts.

To change the map : click on the green buttons with a black cross to zoom in, on the green button with a dash to zoom out, or on the green arrows for adjacent maps.


METAR-TAF: